createdAt,value
2018-07-21T00:02:10.707Z,18.90
2018-07-21T00:04:39.815Z,18.90
2018-07-21T00:07:08.871Z,18.90
2018-07-21T00:09:37.948Z,18.90
2018-07-21T00:12:07.055Z,18.80
2018-07-21T00:14:36.112Z,18.80
2018-07-21T00:19:34.119Z,18.80
2018-07-21T00:22:03.211Z,18.80
2018-07-21T00:24:32.335Z,18.80
2018-07-21T00:27:06.323Z,18.70
2018-07-21T00:29:35.457Z,18.70
2018-07-21T00:32:04.567Z,18.70
2018-07-21T00:34:33.686Z,18.70
2018-07-21T00:39:31.574Z,18.70
2018-07-21T00:42:00.699Z,18.70
2018-07-21T00:44:29.734Z,18.60
2018-07-21T00:46:58.868Z,18.60
2018-07-21T00:49:28.029Z,18.60
2018-07-21T00:51:57.155Z,18.60
2018-07-21T00:54:26.205Z,18.60
2018-07-21T00:56:55.317Z,18.60
2018-07-21T00:59:25.292Z,18.60
2018-07-21T01:01:54.359Z,18.60
2018-07-21T01:04:23.507Z,18.60
2018-07-21T01:06:52.582Z,18.60
2018-07-21T01:09:21.614Z,18.50
2018-07-21T01:11:50.740Z,18.50
2018-07-21T01:14:19.814Z,18.40
2018-07-21T01:19:17.690Z,18.40
2018-07-21T01:26:44.246Z,18.40
2018-07-21T01:29:13.298Z,18.30
2018-07-21T01:31:42.392Z,18.30
2018-07-21T01:34:11.394Z,18.30
2018-07-21T01:36:40.642Z,18.30
2018-07-21T01:41:40.087Z,18.30
2018-07-21T01:44:09.154Z,18.20
2018-07-21T01:49:06.976Z,18.20
2018-07-21T01:51:36.260Z,18.20
2018-07-21T01:54:05.316Z,18.20
2018-07-21T01:56:34.409Z,18.10
2018-07-21T02:01:32.172Z,18.00
2018-07-21T02:04:01.298Z,18.00
2018-07-21T02:08:59.096Z,17.90
2018-07-21T02:11:28.154Z,17.90
2018-07-21T02:13:57.240Z,17.90
2018-07-21T02:16:26.367Z,17.80
2018-07-21T02:21:24.140Z,17.90
2018-07-21T02:28:50.883Z,17.80
2018-07-21T02:31:20.106Z,17.80
2018-07-21T02:33:49.242Z,17.80
2018-07-21T02:36:18.310Z,17.80
2018-07-21T02:43:44.786Z,17.80
2018-07-21T02:46:14.803Z,17.80
2018-07-21T02:48:43.947Z,17.80
2018-07-21T02:51:13.001Z,17.70
2018-07-21T02:53:42.068Z,17.70
2018-07-21T02:58:39.886Z,17.70
2018-07-21T03:01:08.929Z,17.70
2018-07-21T03:03:37.966Z,17.60
2018-07-21T03:06:06.712Z,17.60
2018-07-21T03:08:35.823Z,17.60
2018-07-21T03:13:33.552Z,17.60
2018-07-21T03:16:02.618Z,17.60
2018-07-21T03:18:31.665Z,17.50
2018-07-21T03:21:00.743Z,17.50
2018-07-21T03:23:29.829Z,17.50
2018-07-21T03:25:58.984Z,17.50
2018-07-21T03:28:28.067Z,17.50
2018-07-21T03:30:57.221Z,17.50
2018-07-21T03:33:26.276Z,17.40
2018-07-21T03:35:55.439Z,17.40
2018-07-21T03:38:24.556Z,17.50
2018-07-21T03:40:53.677Z,17.50
2018-07-21T03:43:22.735Z,17.50
2018-07-21T03:50:49.296Z,17.60
2018-07-21T03:58:15.891Z,17.60
2018-07-21T04:00:45.275Z,17.60
2018-07-21T04:03:14.413Z,17.60
2018-07-21T04:05:43.486Z,17.60
2018-07-21T04:08:12.606Z,17.60
2018-07-21T04:10:41.759Z,17.60
2018-07-21T04:13:10.814Z,17.70
2018-07-21T04:15:39.888Z,17.70
2018-07-21T04:18:09.003Z,17.80
2018-07-21T04:20:38.107Z,17.80
2018-07-21T04:23:07.223Z,17.80
2018-07-21T04:28:05.064Z,17.80
2018-07-21T04:30:34.214Z,17.80
2018-07-21T04:33:03.366Z,17.80
2018-07-21T04:35:32.546Z,17.90
2018-07-21T04:38:01.628Z,17.90
2018-07-21T04:40:30.669Z,17.90
2018-07-21T04:42:59.923Z,18.00
2018-07-21T04:45:28.942Z,18.10
2018-07-21T04:47:58.139Z,18.10
2018-07-21T04:50:27.258Z,18.20
2018-07-21T04:52:56.354Z,18.30
2018-07-21T04:55:25.446Z,18.40
2018-07-21T05:00:23.905Z,18.60
2018-07-21T05:02:53.018Z,18.70
2018-07-21T05:05:22.116Z,18.70
2018-07-21T05:07:51.208Z,18.70
2018-07-21T05:10:20.303Z,18.80
2018-07-21T05:12:49.476Z,18.90
2018-07-21T05:15:18.571Z,19.00
2018-07-21T05:17:47.666Z,19.10
2018-07-21T05:20:16.749Z,19.20
2018-07-21T05:22:46.753Z,19.30
2018-07-21T05:25:15.833Z,19.30
2018-07-21T05:27:44.952Z,19.40
2018-07-21T05:30:14.010Z,19.50
2018-07-21T05:37:41.264Z,19.80
2018-07-21T05:40:10.383Z,19.90
2018-07-21T05:50:05.883Z,20.30
2018-07-21T05:52:35.002Z,20.40
2018-07-21T05:55:04.107Z,20.40
2018-07-21T05:57:33.191Z,20.50
2018-07-21T06:00:02.320Z,20.70
2018-07-21T06:05:00.122Z,20.90
2018-07-21T06:07:29.261Z,21.00
2018-07-21T06:09:58.315Z,21.20
2018-07-21T06:12:27.381Z,21.30
2018-07-21T06:14:56.458Z,21.50
2018-07-21T06:17:25.531Z,21.60
2018-07-21T06:19:54.626Z,21.70
2018-07-21T06:22:23.691Z,21.70
2018-07-21T06:24:52.749Z,21.80
2018-07-21T06:27:21.843Z,21.90
2018-07-21T06:29:51.042Z,22.10
2018-07-21T06:32:20.120Z,22.20
2018-07-21T06:34:49.271Z,22.20
2018-07-21T06:37:18.350Z,22.20
2018-07-21T06:39:47.404Z,22.20
2018-07-21T06:42:16.530Z,22.20
2018-07-21T06:49:43.695Z,22.20
2018-07-21T06:52:12.778Z,22.30
2018-07-21T06:54:41.926Z,22.40
2018-07-21T06:57:11.183Z,22.40
2018-07-21T06:59:40.364Z,22.50
2018-07-21T07:02:09.671Z,22.50
2018-07-21T07:04:38.823Z,22.60
2018-07-21T07:07:07.947Z,22.60
2018-07-21T07:09:37.043Z,22.70
2018-07-21T07:12:06.133Z,22.80
2018-07-21T07:14:35.271Z,22.90
2018-07-21T07:22:01.864Z,23.10
2018-07-21T07:24:31.187Z,23.20
2018-07-21T07:27:00.310Z,23.50
2018-07-21T07:29:29.515Z,23.60
2018-07-21T07:31:58.677Z,23.80
2018-07-21T07:34:27.929Z,24.00
2018-07-21T07:39:26.401Z,24.10
2018-07-21T07:41:55.519Z,24.30
2018-07-21T07:46:53.321Z,24.10
2018-07-21T07:49:22.446Z,24.30
2018-07-21T07:51:52.694Z,24.50
2018-07-21T07:54:21.920Z,24.60
2018-07-21T07:59:20.183Z,24.70
2018-07-21T08:06:47.102Z,24.90
2018-07-21T08:09:16.219Z,25.00
2018-07-21T08:11:45.418Z,25.10
2018-07-21T08:14:14.657Z,25.10
2018-07-21T08:16:43.940Z,25.30
2018-07-21T08:19:13.139Z,25.10
2018-07-21T08:21:42.262Z,25.30
2018-07-21T08:24:11.391Z,25.40
2018-07-21T08:26:40.519Z,25.40
2018-07-21T08:29:09.631Z,25.30
2018-07-21T08:31:38.814Z,25.30
2018-07-21T08:34:08.809Z,25.50
2018-07-21T08:36:37.980Z,25.60
2018-07-21T08:39:08.853Z,25.70
2018-07-21T08:41:37.962Z,25.60
2018-07-21T08:44:07.431Z,25.60
2018-07-21T08:46:36.791Z,25.80
2018-07-21T08:51:34.884Z,25.90
2018-07-21T08:56:32.677Z,25.80
2018-07-21T08:59:02.055Z,25.70
2018-07-21T09:03:59.909Z,25.80
2018-07-21T09:06:29.022Z,26.00
2018-07-21T09:08:58.249Z,25.90
2018-07-21T09:11:27.331Z,25.80
2018-07-21T09:13:56.402Z,26.00
2018-07-21T09:16:25.475Z,26.20
2018-07-21T09:18:55.151Z,26.30
2018-07-21T09:21:24.396Z,26.30
2018-07-21T09:23:53.503Z,26.30
2018-07-21T09:26:23.429Z,26.40
2018-07-21T09:28:52.659Z,26.60
2018-07-21T09:31:21.780Z,26.70
2018-07-21T09:33:50.910Z,26.80
2018-07-21T09:36:20.126Z,27.00
2018-07-21T09:38:49.283Z,27.10
2018-07-21T09:41:18.387Z,27.00
2018-07-21T09:43:47.566Z,26.90
2018-07-21T09:46:16.686Z,27.10
2018-07-21T09:48:46.858Z,27.20
2018-07-21T09:51:15.947Z,27.20
2018-07-21T09:53:45.055Z,27.20
2018-07-21T09:56:14.118Z,27.20
2018-07-21T10:01:12.074Z,27.20
2018-07-21T10:03:41.207Z,27.20
2018-07-21T10:06:10.609Z,27.40
2018-07-21T10:08:39.666Z,27.50
2018-07-21T10:11:08.927Z,27.70
2018-07-21T10:13:38.046Z,27.80
2018-07-21T10:16:07.165Z,27.80
2018-07-21T10:18:36.255Z,27.70
2018-07-21T10:21:05.428Z,27.60
2018-07-21T10:23:34.562Z,27.60
2018-07-21T10:28:43.288Z,27.70
2018-07-21T10:31:12.385Z,27.30
2018-07-21T10:33:41.550Z,27.20
2018-07-21T10:36:10.692Z,27.40
2018-07-21T10:38:39.758Z,27.30
2018-07-21T10:41:08.922Z,27.10
2018-07-21T10:43:38.081Z,27.10
2018-07-21T10:46:07.190Z,27.10
2018-07-21T10:48:36.286Z,27.30
2018-07-21T10:51:05.391Z,27.60
2018-07-21T10:53:34.530Z,27.80
2018-07-21T10:56:03.712Z,27.90
2018-07-21T10:58:32.819Z,28.10
2018-07-21T11:01:01.961Z,28.00
2018-07-21T11:03:31.667Z,27.80
2018-07-21T11:06:00.718Z,27.70
2018-07-21T11:08:32.001Z,27.90
2018-07-21T11:11:01.059Z,28.00
2018-07-21T11:13:30.319Z,27.80
2018-07-21T11:15:59.496Z,27.80
2018-07-21T11:18:28.982Z,28.20
2018-07-21T11:23:27.515Z,28.50
2018-07-21T11:25:56.602Z,28.90
2018-07-21T11:28:28.364Z,29.10
2018-07-21T11:30:57.512Z,29.30
2018-07-21T11:33:26.646Z,29.40
2018-07-21T11:35:55.882Z,29.50
2018-07-21T11:38:25.014Z,29.60
2018-07-21T11:43:22.933Z,29.80
2018-07-21T11:45:52.075Z,29.80
2018-07-21T11:48:21.174Z,29.70
2018-07-21T11:50:50.280Z,29.60
2018-07-21T11:53:19.511Z,29.60
2018-07-21T11:55:48.658Z,29.30
2018-07-21T11:58:17.792Z,29.30
2018-07-21T12:00:46.982Z,29.70
2018-07-21T12:03:16.213Z,29.90
2018-07-21T12:05:45.344Z,30.30
2018-07-21T12:08:14.478Z,30.20
2018-07-21T12:10:43.581Z,30.20
2018-07-21T12:13:12.708Z,30.20
2018-07-21T12:15:41.908Z,30.30
2018-07-21T12:18:10.976Z,30.40
2018-07-21T12:20:40.043Z,30.40
2018-07-21T12:28:07.234Z,31.40
2018-07-21T12:30:36.275Z,31.80
2018-07-21T12:33:05.387Z,31.50
2018-07-21T12:35:34.579Z,31.60
2018-07-21T12:38:03.936Z,31.60
2018-07-21T12:40:33.039Z,31.50
2018-07-21T12:43:03.169Z,31.80
2018-07-21T12:45:32.248Z,32.20
2018-07-21T12:48:01.402Z,32.70
2018-07-21T12:52:59.196Z,34.50
2018-07-21T12:57:56.997Z,36.50
2018-07-21T13:00:26.079Z,36.40
2018-07-21T13:02:55.223Z,37.10
2018-07-21T13:05:24.290Z,37.00
2018-07-21T13:07:53.369Z,37.90
2018-07-21T13:10:22.486Z,39.00
2018-07-21T13:12:51.591Z,39.10
2018-07-21T13:15:20.651Z,39.60
2018-07-21T13:17:49.721Z,39.20
2018-07-21T13:22:47.548Z,40.70
2018-07-21T13:25:16.693Z,41.10
2018-07-21T13:27:45.933Z,40.40
2018-07-21T13:30:15.074Z,39.20
2018-07-21T13:32:44.198Z,39.20
2018-07-21T13:37:42.077Z,39.50
2018-07-21T13:40:11.176Z,39.20
2018-07-21T13:45:08.983Z,39.70
2018-07-21T13:47:38.158Z,40.70
2018-07-21T13:52:35.924Z,40.40
2018-07-21T13:55:06.215Z,40.20
2018-07-21T13:57:35.288Z,40.90
2018-07-21T14:00:07.392Z,40.50
2018-07-21T14:02:36.442Z,40.40
2018-07-21T14:05:05.954Z,39.80
2018-07-21T14:07:35.141Z,39.30
2018-07-21T14:10:04.477Z,39.10
2018-07-21T14:12:33.577Z,38.80
2018-07-21T14:15:02.667Z,38.00
2018-07-21T14:17:31.798Z,37.60
2018-07-21T14:22:29.728Z,36.70
2018-07-21T14:24:58.793Z,36.40
2018-07-21T14:27:27.906Z,36.40
2018-07-21T14:29:57.096Z,35.70
2018-07-21T14:32:26.227Z,36.00
2018-07-21T14:34:55.369Z,37.40
2018-07-21T14:37:24.535Z,39.10
2018-07-21T14:39:53.598Z,39.90
2018-07-21T14:42:22.661Z,40.70
2018-07-21T14:44:51.745Z,41.50
2018-07-21T14:47:20.810Z,40.70
2018-07-21T14:49:49.995Z,40.00
2018-07-21T14:52:19.023Z,39.30
2018-07-21T14:54:48.201Z,37.90
2018-07-21T14:57:17.407Z,37.00
2018-07-21T15:04:43.943Z,35.00
2018-07-21T15:07:12.965Z,34.70
2018-07-21T15:12:10.908Z,35.00
2018-07-21T15:14:40.137Z,35.40
2018-07-21T15:17:09.249Z,36.10
2018-07-21T15:22:07.161Z,38.00
2018-07-21T15:24:36.306Z,39.30
2018-07-21T15:27:05.446Z,40.10
2018-07-21T15:29:34.666Z,41.20
2018-07-21T15:32:03.744Z,42.00
2018-07-21T15:34:32.829Z,42.60
2018-07-21T15:37:02.090Z,42.10
2018-07-21T15:39:31.201Z,42.10
2018-07-21T15:44:29.155Z,39.70
2018-07-21T15:46:58.222Z,40.20
2018-07-21T15:49:28.294Z,40.90
2018-07-21T15:51:57.483Z,41.00
2018-07-21T15:54:26.599Z,40.40
2018-07-21T15:59:24.404Z,39.80
2018-07-21T16:01:53.506Z,38.70
2018-07-21T16:04:22.602Z,38.50
2018-07-21T16:06:51.759Z,39.00
2018-07-21T16:11:49.608Z,39.00
2018-07-21T16:14:18.726Z,39.30
2018-07-21T16:19:16.558Z,38.70
2018-07-21T16:21:45.612Z,38.40
2018-07-21T16:26:43.484Z,38.80
2018-07-21T16:29:12.501Z,39.30
2018-07-21T16:31:41.583Z,39.20
2018-07-21T16:36:39.396Z,38.20
2018-07-21T16:39:10.130Z,38.30
2018-07-21T16:41:39.188Z,37.20
2018-07-21T16:44:08.280Z,35.80
2018-07-21T16:49:06.127Z,33.40
2018-07-21T16:51:35.174Z,32.80
2018-07-21T16:54:04.273Z,32.00
2018-07-21T16:56:33.399Z,31.40
2018-07-21T16:59:02.603Z,31.00
2018-07-21T17:01:31.907Z,30.90
2018-07-21T17:04:02.196Z,30.50
2018-07-21T17:06:32.829Z,30.40
2018-07-21T17:09:03.116Z,30.10
2018-07-21T17:11:33.034Z,29.90
2018-07-21T17:16:36.878Z,29.40
2018-07-21T17:19:06.695Z,29.20
2018-07-21T17:21:36.792Z,29.10
2018-07-21T17:24:06.975Z,28.90
2018-07-21T17:26:36.110Z,28.80
2018-07-21T17:29:06.425Z,28.70
2018-07-21T17:31:36.002Z,28.60
2018-07-21T17:34:05.123Z,28.60
2018-07-21T17:36:34.245Z,28.50
2018-07-21T17:39:14.744Z,28.30
2018-07-21T17:41:45.484Z,28.10
2018-07-21T17:46:45.315Z,27.80
2018-07-21T17:49:15.685Z,27.60
2018-07-21T17:51:45.821Z,27.40
2018-07-21T17:54:15.011Z,27.30
2018-07-21T17:56:44.070Z,27.20
2018-07-21T18:04:13.622Z,27.10
2018-07-21T18:06:45.297Z,27.10
2018-07-21T18:09:14.503Z,27.00
2018-07-21T18:12:37.630Z,26.80
2018-07-21T18:17:44.492Z,26.70
2018-07-21T18:20:15.367Z,26.60
2018-07-21T18:22:52.035Z,26.50
2018-07-21T18:27:55.042Z,26.30
2018-07-21T18:32:54.260Z,26.20
2018-07-21T18:35:26.211Z,26.10
2018-07-21T18:38:00.605Z,26.00
2018-07-21T18:40:32.512Z,25.90
2018-07-21T18:43:03.932Z,25.80
2018-07-21T18:45:38.103Z,25.70
2018-07-21T18:48:08.398Z,25.50
2018-07-21T18:50:39.740Z,25.50
2018-07-21T18:53:09.657Z,25.40
2018-07-21T18:55:39.164Z,25.30
2018-07-21T18:58:27.047Z,25.30
2018-07-21T19:01:02.978Z,25.20
2018-07-21T19:03:35.526Z,25.10
2018-07-21T19:06:10.503Z,25.00
2018-07-21T19:09:13.579Z,24.90
2018-07-21T19:11:53.840Z,24.90
2018-07-21T19:17:10.015Z,24.70
2018-07-21T19:19:44.504Z,24.60
2018-07-21T19:22:14.688Z,24.50
2018-07-21T19:24:44.412Z,24.40
2018-07-21T19:27:20.256Z,24.40
2018-07-21T19:29:49.874Z,24.30
2018-07-21T19:32:25.256Z,24.30
2018-07-21T19:34:54.490Z,24.30
2018-07-21T19:37:56.355Z,24.20
2018-07-21T19:40:26.554Z,24.10
2018-07-21T19:42:57.386Z,24.10
2018-07-21T19:45:27.326Z,24.10
2018-07-21T19:47:56.946Z,24.00
2018-07-21T19:51:14.670Z,23.90
2018-07-21T19:56:16.892Z,23.80
2018-07-21T19:58:49.881Z,23.80
2018-07-21T20:01:23.479Z,23.70
2018-07-21T20:03:55.464Z,23.70
2018-07-21T20:06:31.230Z,23.60
2018-07-21T20:09:04.118Z,23.60
2018-07-21T20:11:34.327Z,23.60
2018-07-21T20:14:03.561Z,23.60
2018-07-21T20:16:39.082Z,23.50
2018-07-21T20:19:13.791Z,23.50
2018-07-21T20:21:47.083Z,23.40
2018-07-21T20:24:17.297Z,23.40
2018-07-21T20:29:33.917Z,23.30
2018-07-21T20:34:36.835Z,23.20
2018-07-21T20:37:17.446Z,23.20
2018-07-21T20:39:49.511Z,23.20
2018-07-21T20:42:21.098Z,23.10
2018-07-21T20:47:24.022Z,23.00
2018-07-21T20:49:54.974Z,23.00
2018-07-21T20:52:24.157Z,23.00
2018-07-21T20:58:25.943Z,22.90
2018-07-21T21:01:01.948Z,22.80
2018-07-21T21:03:34.565Z,22.80
2018-07-21T21:06:10.174Z,22.70
2018-07-21T21:11:24.294Z,22.60
2018-07-21T21:14:06.693Z,22.60
2018-07-21T21:16:39.537Z,22.60
2018-07-21T21:19:08.673Z,22.50
2018-07-21T21:21:42.196Z,22.50
2018-07-21T21:24:12.812Z,22.40
2018-07-21T21:26:51.180Z,22.40
2018-07-21T21:32:01.630Z,22.30
2018-07-21T21:34:33.850Z,22.40
2018-07-21T21:37:08.482Z,22.30
2018-07-21T21:39:41.668Z,22.40
2018-07-21T21:43:19.581Z,22.40
2018-07-21T21:45:59.878Z,22.40
2018-07-21T21:48:33.347Z,22.40
2018-07-21T21:51:05.878Z,22.40
2018-07-21T21:53:37.279Z,22.40
2018-07-21T21:56:11.757Z,22.40
2018-07-21T22:01:17.464Z,22.50
2018-07-21T22:03:46.538Z,22.40
2018-07-21T22:06:16.007Z,22.40
2018-07-21T22:08:45.839Z,22.40
2018-07-21T22:11:14.914Z,22.40
2018-07-21T22:13:43.988Z,22.40
2018-07-21T22:16:13.225Z,22.40
2018-07-21T22:21:11.184Z,22.40
2018-07-21T22:23:40.942Z,22.40
2018-07-21T22:26:10.044Z,22.40
2018-07-21T22:28:39.123Z,22.40
2018-07-21T22:31:08.262Z,22.40
2018-07-21T22:33:37.418Z,22.40
2018-07-21T22:36:06.547Z,22.30
2018-07-21T22:38:36.270Z,22.30
2018-07-21T22:41:05.521Z,22.20
2018-07-21T22:43:34.603Z,22.20
2018-07-21T22:46:04.099Z,22.10
2018-07-21T22:48:34.073Z,22.10
2018-07-21T22:51:03.278Z,22.10
2018-07-21T22:53:33.302Z,22.10
2018-07-21T22:56:02.602Z,22.10
2018-07-21T22:58:32.142Z,22.10
2018-07-21T23:01:01.283Z,22.10
2018-07-21T23:03:30.358Z,22.00
2018-07-21T23:05:59.496Z,22.00
2018-07-21T23:08:28.622Z,22.00
2018-07-21T23:10:57.780Z,22.10
2018-07-21T23:13:26.860Z,22.00
2018-07-21T23:15:55.905Z,22.10
2018-07-21T23:18:25.785Z,22.10
2018-07-21T23:20:54.920Z,22.00
2018-07-21T23:23:24.032Z,22.00
2018-07-21T23:25:53.339Z,22.00
2018-07-21T23:28:23.155Z,22.00
2018-07-21T23:30:52.245Z,22.00
2018-07-21T23:33:21.295Z,22.00
2018-07-21T23:35:50.363Z,21.90
2018-07-21T23:38:19.486Z,21.90
2018-07-21T23:43:17.394Z,22.00
2018-07-21T23:45:46.541Z,22.00
2018-07-21T23:48:15.558Z,21.90
2018-07-21T23:53:13.414Z,21.90
2018-07-21T23:55:42.442Z,21.90
